White Mountain Summit Weather observations

Data are for 10 minute period ending at time listed.
 Day   Time   Solar   Ave.   Ave.  Ave.  Vector    Max.    Baro.  
  of    of     Rad.   Air    Rel.  Wind   Wind     Wind   Press.  
Year   Day            Temp.  Hum.  Speed  Dir.     Gust           
2017   (PST)   W/m2    F      %     mph   deg.      mph     mb.   
-------------------------------------------------------------------
  35   21:00    0.0    10   71.5    75    276.4    84.7   593.6 
  35   21:10    0.0    10   71.0    72    277.0    84.7   593.7 
  35   21:20    0.0    10   71.8    76    276.4    84.7   593.5 
  35   21:30    0.0    10   71.3    75    277.8    82.4   593.6 
  35   21:40    0.0     9   70.9    76    277.4    84.7   593.5 
  35   21:50    0.0     9   70.1    75    277.8    82.4   593.5 
  35   22:00    0.0     9   65.7    75    278.2    82.4   593.5 
  35   22:10    0.0     9   62.3    74    277.3    80.0   593.6 
  35   22:20    0.0    10   60.7    69    279.2    75.3   593.9 
  35   22:30    0.0    10   61.0    69    279.3    72.9   594.0 
  35   22:40    0.0    10   61.6    67    280.4    70.6   594.2 
  35   22:50    0.0    10   59.6    65    280.5    70.6   594.3 
  35   23:00    0.0    10   58.0    58    279.3    63.5   594.7 
  35   23:10    0.0    10   57.3    59    279.5    65.9   594.7 
  35   23:20    0.0    11   55.1    60    277.9    68.2   594.6 
  35   23:30    1.0    10   55.7    58    277.0    68.2   594.7 
  35   23:40    0.0    11   55.0    59    278.4    65.9   594.7 
  35   23:50    0.0    11   53.9    63    278.6    68.2   594.5 
  36    0:00    0.0    11   53.7    64    274.7    72.9   594.5 
  36    0:10    0.0    11   51.5    62    275.7    70.6   594.6 
  36    0:20    0.0    11   49.4    63    274.8    68.2   594.6 
  36    0:30    0.0    11   48.0    64    256.0    72.9   594.8 
  36    0:40    0.0    11   54.0    62    256.0    80.0   594.9 
  36    0:50    0.0    12   54.8    66    278.1    72.9   594.5 
  36    1:00    0.0    12   55.5    66    276.6    75.3   594.5 
  36    1:10    1.0    11   53.4    57    277.2    63.5   594.8 
  36    1:20    0.0    11   54.0    57    281.2    65.9   594.7 
  36    1:30    0.0    11   55.3    57    279.3    65.9   594.7 
  36    1:40    0.0    12   55.8    58    276.1    68.2   594.7 
  36    1:50    0.0    12   58.8    53    272.8    61.2   595.0 
  36    2:00    0.0    12   60.3    54    277.3    61.2   594.9 
  36    2:10    1.0    12   57.9    56    277.2    61.2   594.7 
  36    2:20    0.0    12   58.0    50    275.4    58.8   594.8 
  36    2:30    0.0    12   62.0    55    270.2    68.2   594.8 
  36    2:40    1.0    12   62.0    46    268.1    56.5   595.0 
  36    2:50    1.0    12   61.5    45    265.7    54.1   595.0 
  36    3:00    0.0    13   61.6    44    263.5    56.5   595.0 
  36    3:10    1.0    13   60.6    43    267.5    51.8   595.1 
  36    3:20    1.0    13   60.6    40    259.6    47.1   595.1 
  36    3:30    1.0    13   61.8    40    257.3    44.7   595.1 
  36    3:40    1.0    13   62.7    38    258.3    42.4   595.0 
  36    3:50    1.0    14   63.0    30    265.9    42.4   595.0 
  36    4:00    0.0    13   62.5    35    257.0    44.7   594.9 
  36    4:10    0.0    13   64.2    36    250.4    42.4   594.9 
  36    4:20    1.0    13   64.9    36    260.0    40.0   594.8 
  36    4:30    1.0    13   65.3    40    270.4    49.4   594.7 
  36    4:40    0.0    14   65.3    47    273.4    56.5   594.5 
  36    4:50    0.0    14   65.0    43    268.1    51.8   594.6 
  36    5:00    0.0    14   65.4    45    265.7    54.1   594.6 
  36    5:10    0.0    14   64.7    48    271.6    56.5   594.5 
  36    5:20    0.0    14   63.9    46    271.9    54.1   594.5 
  36    5:30    0.0    14   64.9    44    268.0    51.8   594.5 
  36    5:40    0.0    14   65.5    49    270.0    56.5   594.4 
  36    5:50    0.0    14   65.2    50    269.2    56.5   594.3 
  36    6:00    0.0    14   64.3    51    269.1    58.8   594.2 
  36    6:10    0.0    15   63.1    51    262.3    58.8   594.1 
  36    6:20    0.0    14   62.6    43    258.3    54.1   594.2 
  36    6:30    0.0    14   62.0    38    228.5    42.4   594.3 
  36    6:40    0.0    14   62.4    39    231.6    47.1   594.3 
  36    6:50    0.0    14   62.8    41    251.9    47.1   594.3 
  36    7:00    0.0    13   63.8    41    260.1    49.4   594.3 
  36    7:10    0.0    13   63.5    45    256.3    54.1   594.2 
  36    7:20    0.0    13   62.3    43    257.0    54.1   594.4 
  36    7:30    0.0    13   62.2    41    246.7    56.5   594.4 
  36    7:40    0.0    13   62.5    41    250.9    47.1   594.4 
  36    7:50    0.0    13   63.0    35    257.1    44.7   594.5 
  36    8:00    0.0    13   63.3    38    248.4    47.1   594.4 
  36    8:10    0.0    13   62.2    34    222.6    51.8   594.5 
  36    8:20    0.0    13   60.9    31    227.9    42.4   594.6 
  36    8:30    0.0    13   57.5    35    239.2    47.1   594.6 
  36    8:40    0.0    14   53.2    34    237.5    40.0   594.5 
  36    8:50    0.0    14   45.7    36    238.7    44.7   594.5 
  36    9:00    0.0    14   40.9    42    256.9    49.4   594.2 
  36    9:10    0.0    15   35.0    48    256.9    58.8   594.2 
  36    9:20    0.0    15   34.7    43    260.8    51.8   594.2 
  36    9:30    0.0    15   34.2    43    264.6    54.1   594.2 
  36    9:40    0.0    16   32.8    43    256.3    54.1   594.1 
  36    9:50    0.0    16   31.8    47    259.3    54.1   594.0 
  36   10:00    0.0    16   32.9    45    250.6    54.1   594.0 
  36   10:10    0.0    16   35.0    47    257.8    54.1   593.9 
  36   10:20    0.0    16   37.4    50    256.6    56.5   593.9 
  36   10:30    0.0    16   38.3    51    252.0    63.5   593.7 
  36   10:40    0.0    16   40.0    51    250.4    58.8   593.7 
  36   10:50    0.0    17   42.2    50    255.6    58.8   593.6 
  36   11:00    0.0    17   43.3    52    258.4    58.8   593.5 
  36   11:10    0.0    17   45.4    53    251.4    61.2   593.3 
  36   11:20    0.0    17   47.4    54    250.0    61.2   593.0 
  36   11:30    0.0    17   50.5    58    250.9    68.2   592.8 
  36   11:40    0.0    17   54.4    62    254.3    72.9   592.5 
  36   11:50    0.0    17   57.6    64    251.6    75.3   592.1 
  36   12:00    0.0    17   59.5    65    247.0    80.0   591.8 
  36   12:10    0.0    17   60.2    65    245.3    77.7   591.6 
  36   12:20    0.0    16   60.8    63    248.2    75.3   591.6 
  36   12:30    0.0    16   60.8    64    248.2    77.7   591.3 
  36   12:40    0.0    16   61.6    66    251.0    77.7   591.2 
  36   12:50    0.0    16   65.4    69    247.1    77.7   590.8 
  36   13:00    0.0    15   69.0    68    247.8    77.7   590.8 
  36   13:10    0.0    14   75.5    71    248.3    80.0   590.5 
  36   13:20    0.0    14   77.9    68    244.7    82.4   590.5 
  36   13:30    0.0    14   79.3    70    242.0    82.4   590.1 
  36   13:40    0.0    14   81.6    70    249.0    82.4   590.1 
  36   13:50    0.0    13   84.8    70    246.5    82.4   589.9 
  36   14:00    0.0    12   86.7    68    244.4    80.0   589.9 
  36   14:10    0.0    12   86.9    66    244.3    75.3   589.9 
  36   14:20    0.0    12   86.9    62    237.6    75.3   589.8 
  36   14:30    0.0    12   87.0    68    247.8    80.0   589.5 
  36   14:40    0.0    12   87.1    67    245.5    75.3   589.5 
  36   14:50    0.0    12   87.1    69    253.5    80.0   589.5 
  36   15:00    0.0    13   87.2    61    258.8    70.6   589.6 
  36   15:10    0.0    13   87.1    62    248.0    77.7   589.3 
  36   15:20    0.0    12   87.1    66    251.4    80.0   589.0 
  36   15:30    0.0    12   87.2    65    256.8    72.9   588.9 
  36   15:40    0.0    12   87.2    60    250.1    70.6   589.0 
  36   15:50    0.0    12   87.2    61    251.4    72.9   588.7 
  36   16:00    0.0    12   87.1    63    248.3    75.3   588.4 
  36   16:10    0.0    11   87.1    60    252.2    68.2   588.1 
  36   16:20    0.0    11   87.0    58    247.2    65.9   588.1 
  36   16:30    0.0    11   86.9    56    250.4    63.5   588.0 
  36   16:40    0.0    11   86.6    54    249.6    61.2   588.0 
  36   16:50    0.0    10   86.3    59    253.8    68.2   587.7 
  36   17:00    0.0    10   86.4    61    249.6    70.6   587.5 
  36   17:10    0.0     9   86.5    60    252.1    70.6   587.2 
  36   17:20    0.0     8   86.4    63    246.3    75.3   587.2 
  36   17:30    0.0     8   86.4    62    253.0    75.3   587.0 
  36   17:40    0.0     8   86.2    61    258.5    75.3   586.8 
  36   17:50    0.0     8   86.2    61    259.4    82.4   587.0 
  36   18:00    0.0     8   86.1    61    255.2    77.7   586.9 
  36   18:10    0.0     8   86.0    68    251.2    80.0   586.7 
  36   18:20    0.0     8   85.9    71    245.8    80.0   586.5 
  36   18:30    0.0     8   86.0    68    252.3    80.0   586.6 
  36   18:40    0.0     8   86.4    66    244.5    77.7   586.9 
  36   18:50    0.0     8   86.7    66    249.9    82.4   586.7 
  36   19:00    0.0     8   86.7    69    244.6    82.4   586.4 
  36   19:10    0.0     8   86.7    68    245.0    77.7   586.6 
  36   19:20    0.0     8   86.6    74    239.6    82.4   586.0 
  36   19:30    0.0     8   86.6    74    235.5    82.4   585.7 
  36   19:40    0.0     8   86.7    71    235.5    80.0   586.0 
  36   19:50    0.0     8   86.7    68    239.0    77.7   585.9 
  36   20:00    0.0     9   86.8    72    246.6    82.4   585.8 
  36   20:10    0.0     9   86.7    64    238.9    77.7   586.2 
  36   20:20    0.0     8   86.7    61    240.7    68.2   586.2 
  36   20:30    0.0     9   86.8    62    247.0    75.3   585.7 
  36   20:40    0.0     9   86.8    60    251.2    70.6   585.6 
  36   20:50    0.0     9   86.7    62    257.5    77.7   585.4 

Return to White Mountain graphs page.


Western Regional Climate Center,wrcc@dri.edu